createdAt,value
2022-12-13T00:01:55.324Z,99702.77
2022-12-13T00:04:00.001Z,99699.39
2022-12-13T00:06:04.634Z,99692.88
2022-12-13T00:08:09.090Z,99690.8
2022-12-13T00:10:13.460Z,99692.17
2022-12-13T00:12:17.809Z,99697.17
2022-12-13T00:14:22.126Z,99700.13
2022-12-13T00:16:26.538Z,99700.55
2022-12-13T00:18:31.385Z,99701.05
2022-12-13T00:20:36.236Z,99703.73
2022-12-13T00:22:40.525Z,99703.91
2022-12-13T00:24:47.154Z,99704.95
2022-12-13T00:26:51.460Z,99706.2
2022-12-13T00:28:56.284Z,99704.02
2022-12-13T00:31:53.187Z,99699.19
2022-12-13T00:34:04.407Z,99701.09
2022-12-13T00:36:08.694Z,99701.76
2022-12-13T00:38:12.992Z,99702.55
2022-12-13T00:40:17.334Z,99698.24
2022-12-13T00:42:21.668Z,99697.57
2022-12-13T00:44:26.084Z,99704.41
2022-12-13T00:46:30.584Z,99703.05
2022-12-13T00:48:35.072Z,99711.97
2022-12-13T00:50:39.419Z,99704.8
2022-12-13T00:52:43.746Z,99709.27
2022-12-13T00:54:48.075Z,99706.02
2022-12-13T00:56:52.351Z,99705.51
2022-12-13T00:58:56.660Z,99710.44
2022-12-13T01:01:01.054Z,99711.73
2022-12-13T01:03:05.537Z,99715.31
2022-12-13T01:05:10.018Z,99712.39
2022-12-13T01:07:14.469Z,99716.39
2022-12-13T01:09:18.800Z,99717.97
2022-12-13T01:11:23.192Z,99717.59
2022-12-13T01:13:27.489Z,99714.38
2022-12-13T01:15:31.813Z,99713.89
2022-12-13T01:17:36.107Z,99709.8
2022-12-13T01:19:40.392Z,99711.78
2022-12-13T01:21:44.666Z,99711.55
2022-12-13T01:23:48.932Z,99711.67
2022-12-13T01:25:53.201Z,99712.2
2022-12-13T01:27:57.529Z,99710.88
2022-12-13T01:30:01.800Z,99709.09
2022-12-13T01:32:06.072Z,99704.35
2022-12-13T01:34:10.645Z,99703.75
2022-12-13T01:36:15.035Z,99702.78
2022-12-13T01:38:19.336Z,99703.11
2022-12-13T01:40:29.543Z,99710.05
2022-12-13T01:42:33.842Z,99710.62
2022-12-13T01:44:38.139Z,99709.25
2022-12-13T01:46:42.400Z,99711.07
2022-12-13T01:48:46.685Z,99711.78
2022-12-13T01:50:50.990Z,99712.31
2022-12-13T01:52:55.296Z,99715.07
2022-12-13T01:55:04.804Z,99716.34
2022-12-13T01:57:09.099Z,99717.77
2022-12-13T01:59:13.370Z,99716.77
2022-12-13T02:01:17.822Z,99716.88
2022-12-13T02:03:23.061Z,99718.41
2022-12-13T02:05:27.487Z,99719.77
2022-12-13T02:07:31.879Z,99722.27
2022-12-13T02:09:36.179Z,99720.52
2022-12-13T02:11:40.479Z,99721.3
2022-12-13T02:13:44.776Z,99722.91
2022-12-13T02:15:49.252Z,99722.13
2022-12-13T02:17:53.698Z,99724.8
2022-12-13T02:19:57.966Z,99723.61
2022-12-13T02:22:02.265Z,99726.21
2022-12-13T02:24:10.161Z,99729.45
2022-12-13T02:26:14.444Z,99724.55
2022-12-13T02:28:32.709Z,99729.63
2022-12-13T02:30:36.987Z,99727.66
2022-12-13T02:32:41.303Z,99726
2022-12-13T02:34:45.598Z,99728.55
2022-12-13T02:36:49.868Z,99728.53
2022-12-13T02:38:54.175Z,99724.55
2022-12-13T02:41:01.854Z,99728.97
2022-12-13T02:43:06.136Z,99727.16
2022-12-13T02:45:13.351Z,99727.27
2022-12-13T02:47:24.249Z,99731.5
2022-12-13T02:49:28.560Z,99732.78
2022-12-13T02:51:32.851Z,99731.09
2022-12-13T02:53:37.124Z,99734.01
2022-12-13T02:55:41.432Z,99731.2
2022-12-13T02:57:45.723Z,99730.58
2022-12-13T02:59:53.892Z,99726.75
2022-12-13T03:02:11.050Z,99727.86
2022-12-13T03:04:15.560Z,99726.13
2022-12-13T03:06:19.854Z,99729.45
2022-12-13T03:08:24.336Z,99725.66
2022-12-13T03:10:28.853Z,99732.33
2022-12-13T03:12:33.135Z,99726.66
2022-12-13T03:14:37.534Z,99730.42
2022-12-13T03:16:41.862Z,99730.2
2022-12-13T03:18:46.170Z,99733.72
2022-12-13T03:20:53.573Z,99734.2
2022-12-13T03:22:57.975Z,99729.2
2022-12-13T03:25:02.262Z,99730.36
2022-12-13T03:27:06.565Z,99729.5
2022-12-13T03:29:10.867Z,99728.98
2022-12-13T03:31:15.388Z,99721.63
2022-12-13T03:33:19.864Z,99727.2
2022-12-13T03:35:24.726Z,99724.24
2022-12-13T03:37:48.887Z,99731.94
2022-12-13T03:39:53.158Z,99731.49
2022-12-13T03:41:57.420Z,99731.58
2022-12-13T03:44:01.725Z,99734.03
2022-12-13T03:46:06.145Z,99730.84
2022-12-13T03:48:10.588Z,99732.38
2022-12-13T03:50:27.797Z,99730.64
2022-12-13T03:52:32.069Z,99732.22
2022-12-13T03:54:36.364Z,99729.83
2022-12-13T03:56:40.631Z,99729.98
2022-12-13T03:58:44.931Z,99730.5
2022-12-13T04:00:49.216Z,99727.8
2022-12-13T04:02:53.671Z,99726.59
2022-12-13T04:05:01.830Z,99724.05
2022-12-13T04:07:22.897Z,99731.65
2022-12-13T04:09:27.198Z,99732.2
2022-12-13T04:11:31.478Z,99732.27
2022-12-13T04:13:35.765Z,99732.8
2022-12-13T04:15:40.108Z,99735.49
2022-12-13T04:17:51.989Z,99731.03
2022-12-13T04:19:56.258Z,99736.41
2022-12-13T04:22:00.567Z,99738.02
2022-12-13T04:24:04.937Z,99737.08
2022-12-13T04:26:09.213Z,99741.95
2022-12-13T04:28:23.317Z,99733.86
2022-12-13T04:30:27.768Z,99739.57
2022-12-13T04:32:32.038Z,99730.41
2022-12-13T04:34:38.773Z,99729.08
2022-12-13T04:36:43.033Z,99728.34
2022-12-13T04:38:47.299Z,99729.63
2022-12-13T04:40:51.586Z,99730.6
2022-12-13T04:42:55.954Z,99727.48
2022-12-13T04:45:00.871Z,99731.24
2022-12-13T04:47:05.142Z,99726.16
2022-12-13T04:49:09.446Z,99730.06
2022-12-13T04:51:13.772Z,99726.99
2022-12-13T04:53:18.056Z,99727.73
2022-12-13T04:55:22.350Z,99730.71
2022-12-13T04:57:26.667Z,99733.63
2022-12-13T04:59:30.963Z,99735.44
2022-12-13T05:01:35.339Z,99731.88
2022-12-13T05:03:39.649Z,99732.63
2022-12-13T05:05:43.955Z,99733.3
2022-12-13T05:07:48.322Z,99735.03
2022-12-13T05:09:52.867Z,99731.96
2022-12-13T05:12:02.696Z,99734.48
2022-12-13T05:14:06.941Z,99733.05
2022-12-13T05:16:11.321Z,99729.47
2022-12-13T05:18:15.748Z,99730.45
2022-12-13T05:20:20.037Z,99730.58
2022-12-13T05:22:24.358Z,99730.17
2022-12-13T05:24:28.639Z,99727.02
2022-12-13T05:26:32.901Z,99732.11
2022-12-13T05:28:37.215Z,99731.59
2022-12-13T05:30:42.755Z,99730.66
2022-12-13T05:32:47.064Z,99734.66
2022-12-13T05:34:51.351Z,99730.23
2022-12-13T05:36:55.593Z,99727.31
2022-12-13T05:38:59.909Z,99733.2
2022-12-13T05:41:04.211Z,99729.64
2022-12-13T05:43:22.789Z,99738.41
2022-12-13T05:45:45.863Z,99741.14
2022-12-13T05:47:50.996Z,99740.42
2022-12-13T05:49:55.310Z,99738.64
2022-12-13T05:51:59.605Z,99738.52
2022-12-13T05:54:03.906Z,99735.02
2022-12-13T05:56:08.251Z,99733.42
2022-12-13T05:58:14.269Z,99733.88
2022-12-13T06:00:31.694Z,99734.52
2022-12-13T06:02:36.204Z,99738.43
2022-12-13T06:04:40.634Z,99738.13
2022-12-13T06:06:44.903Z,99736.98
2022-12-13T06:08:49.286Z,99736.2
2022-12-13T06:11:12.364Z,99738.36
2022-12-13T06:13:44.068Z,99738.42
2022-12-13T06:15:48.668Z,99738.04
2022-12-13T06:17:52.971Z,99742.66
2022-12-13T06:19:57.261Z,99747.73
2022-12-13T06:22:01.565Z,99746.69
2022-12-13T06:24:05.848Z,99748.05
2022-12-13T06:26:10.146Z,99749.69
2022-12-13T06:28:14.417Z,99757.55
2022-12-13T06:30:18.691Z,99750.59
2022-12-13T06:32:23.008Z,99748.42
2022-12-13T06:34:27.285Z,99744.79
2022-12-13T06:36:31.557Z,99751.83
2022-12-13T06:38:44.447Z,99754.56
2022-12-13T06:40:48.727Z,99753.23
2022-12-13T06:42:53.032Z,99756.18
2022-12-13T06:44:57.593Z,99757.73
2022-12-13T06:47:12.960Z,99766.48
2022-12-13T06:49:36.179Z,99761.07
2022-12-13T06:51:40.473Z,99762.5
2022-12-13T06:53:44.784Z,99756.13
2022-12-13T06:55:49.133Z,99762.38
2022-12-13T06:57:53.413Z,99766.17
2022-12-13T06:59:57.696Z,99762.61
2022-12-13T07:02:04.652Z,99766.52
2022-12-13T07:04:31.606Z,99769.24
2022-12-13T07:06:35.916Z,99777.32
2022-12-13T07:08:40.291Z,99777.2
2022-12-13T07:10:44.639Z,99778.23
2022-12-13T07:12:48.931Z,99777.97
2022-12-13T07:14:53.252Z,99773.09
2022-12-13T07:17:04.361Z,99778.64
2022-12-13T07:19:25.364Z,99781.16
2022-12-13T07:21:38.206Z,99782.34
2022-12-13T07:23:42.483Z,99784.38
2022-12-13T07:25:46.748Z,99785.33
2022-12-13T07:27:51.069Z,99789.05
2022-12-13T07:29:55.388Z,99788.7
2022-12-13T07:32:02.511Z,99787.55
2022-12-13T07:34:06.842Z,99786.91
2022-12-13T07:36:17.519Z,99796.94
2022-12-13T07:38:21.840Z,99793.77
2022-12-13T07:40:26.148Z,99792.72
2022-12-13T07:42:30.478Z,99795.79
2022-12-13T07:44:34.807Z,99791.45
2022-12-13T07:46:39.236Z,99789.91
2022-12-13T07:48:43.718Z,99794.3
2022-12-13T07:50:55.793Z,99793.91
2022-12-13T07:53:00.087Z,99801.19
2022-12-13T07:55:04.398Z,99803.19
2022-12-13T07:57:08.693Z,99803.02
2022-12-13T07:59:12.996Z,99797.63
2022-12-13T08:01:17.446Z,99798.77
2022-12-13T08:03:26.748Z,99800.38
2022-12-13T08:05:40.284Z,99803.19
2022-12-13T08:07:44.699Z,99801.84
2022-12-13T08:09:53.694Z,99797.77
2022-12-13T08:12:02.203Z,99800.01
2022-12-13T08:14:06.491Z,99797.11
2022-12-13T08:16:29.812Z,99793.02
2022-12-13T08:18:34.640Z,99801.72
2022-12-13T08:20:38.976Z,99794.48
2022-12-13T08:22:50.402Z,99793.67
2022-12-13T08:24:54.732Z,99797.45
2022-12-13T08:26:59.027Z,99797.74
2022-12-13T08:29:03.302Z,99795.93
2022-12-13T08:31:07.734Z,99802.08
2022-12-13T08:33:12.116Z,99803.13
2022-12-13T08:35:16.385Z,99806.06
2022-12-13T08:37:20.704Z,99806.33
2022-12-13T08:39:25.013Z,99807.23
2022-12-13T08:41:30.656Z,99808.65
2022-12-13T08:43:42.449Z,99813.03
2022-12-13T08:45:46.740Z,99812.17
2022-12-13T08:47:51.026Z,99809.96
2022-12-13T08:49:55.399Z,99809.14
2022-12-13T08:52:06.767Z,99809.47
2022-12-13T08:54:12.637Z,99813.7
2022-12-13T08:56:34.305Z,99810.55
2022-12-13T08:58:38.571Z,99814.95
2022-12-13T09:00:43.052Z,99817.22
2022-12-13T09:02:47.540Z,99814.88
2022-12-13T09:04:51.981Z,99819.47
2022-12-13T09:06:56.256Z,99821.32
2022-12-13T09:09:05.925Z,99820.57
2022-12-13T09:11:20.775Z,99822.02
2022-12-13T09:13:44.771Z,99826.22
2022-12-13T09:15:49.329Z,99827.29
2022-12-13T09:17:54.208Z,99826.5
2022-12-13T09:20:28.360Z,99828.72
2022-12-13T09:22:35.342Z,99832.5
2022-12-13T09:24:39.685Z,99828.02
2022-12-13T09:26:44.110Z,99827.36
2022-12-13T09:28:48.444Z,99828.51
2022-12-13T09:30:52.750Z,99829
2022-12-13T09:32:57.102Z,99825.71
2022-12-13T09:35:01.364Z,99824.58
2022-12-13T09:37:05.723Z,99826.67
2022-12-13T09:39:10.009Z,99829.23
2022-12-13T09:41:20.830Z,99830.48
2022-12-13T09:43:44.189Z,99831.91
2022-12-13T09:45:49.568Z,99833.27
2022-12-13T09:48:04.822Z,99833.33
2022-12-13T09:50:26.523Z,99827.95
2022-12-13T09:52:34.667Z,99827.18
2022-12-13T09:54:49.308Z,99818.77
2022-12-13T09:56:53.723Z,99821.59
2022-12-13T09:58:58.053Z,99819.69
2022-12-13T10:01:02.486Z,99820.64
2022-12-13T10:03:06.996Z,99820.23
2022-12-13T10:05:33.967Z,99822.63
2022-12-13T10:07:43.864Z,99835.55
2022-12-13T10:09:48.125Z,99833.08
2022-12-13T10:11:52.426Z,99827.68
2022-12-13T10:14:02.403Z,99825.08
2022-12-13T10:16:06.796Z,99826.34
2022-12-13T10:18:11.176Z,99827.91
2022-12-13T10:20:15.514Z,99827.56
2022-12-13T10:22:19.852Z,99825.3
2022-12-13T10:24:36.168Z,99820.08
2022-12-13T10:26:41.764Z,99819.72
2022-12-13T10:28:46.137Z,99820
2022-12-13T10:30:50.432Z,99818.35
2022-12-13T10:32:54.739Z,99817.39
2022-12-13T10:34:59.079Z,99807.39
2022-12-13T10:37:03.365Z,99816.8
2022-12-13T10:39:07.682Z,99815.88
2022-12-13T10:41:12.012Z,99817.53
2022-12-13T10:43:16.324Z,99817.92
2022-12-13T10:45:24.467Z,99815.17
2022-12-13T10:47:28.755Z,99810.58
2022-12-13T10:49:33.082Z,99812.64
2022-12-13T10:51:37.444Z,99812.13
2022-12-13T10:53:48.885Z,99810.37
2022-12-13T10:55:53.215Z,99811.78
2022-12-13T10:57:57.569Z,99811.42
2022-12-13T11:00:02.034Z,99812.34
2022-12-13T11:02:06.446Z,99804.09
2022-12-13T11:04:10.876Z,99808.89
2022-12-13T11:06:15.268Z,99802.88
2022-12-13T11:08:19.709Z,99802.66
2022-12-13T11:10:28.454Z,99804.33
2022-12-13T11:12:32.943Z,99804.2
2022-12-13T11:14:44.292Z,99803.22
2022-12-13T11:16:48.797Z,99800.59
2022-12-13T11:18:53.172Z,99797.98
2022-12-13T11:20:57.501Z,99805.27
2022-12-13T11:23:01.860Z,99806.23
2022-12-13T11:25:06.311Z,99806.09
2022-12-13T11:27:10.620Z,99798.2
2022-12-13T11:29:14.943Z,99799.14
2022-12-13T11:31:19.394Z,99798.45
2022-12-13T11:33:23.812Z,99792.47
2022-12-13T11:35:28.096Z,99794.37
2022-12-13T11:37:32.410Z,99791.53
2022-12-13T11:39:36.737Z,99795.52
2022-12-13T11:41:41.047Z,99791.98
2022-12-13T11:43:45.371Z,99798.44
2022-12-13T11:45:49.764Z,99796.52
2022-12-13T11:47:59.556Z,99800.36
2022-12-13T11:50:03.906Z,99792.4
2022-12-13T11:52:08.170Z,99790
2022-12-13T11:54:12.485Z,99793.45
2022-12-13T11:56:26.864Z,99786.74
2022-12-13T11:59:04.893Z,99786.59
2022-12-13T12:01:19.606Z,99792.56
2022-12-13T12:03:24.070Z,99794.69
2022-12-13T12:05:28.536Z,99789.77
2022-12-13T12:07:34.803Z,99791.98
2022-12-13T12:09:39.121Z,99796.94
2022-12-13T12:11:43.396Z,99795.61
2022-12-13T12:13:52.880Z,99799.37
2022-12-13T12:15:57.360Z,99793.63
2022-12-13T12:18:01.690Z,99798.09
2022-12-13T12:20:06.177Z,99795.55
2022-12-13T12:22:16.121Z,99799.6
2022-12-13T12:24:20.570Z,99801.28
2022-12-13T12:26:24.870Z,99803.35
2022-12-13T12:28:29.820Z,99798.81
2022-12-13T12:30:34.111Z,99805.13
2022-12-13T12:32:42.246Z,99809.69
2022-12-13T12:34:46.561Z,99807.88
2022-12-13T12:36:50.844Z,99806.77
2022-12-13T12:38:55.199Z,99809.13
2022-12-13T12:41:29.606Z,99808.26
2022-12-13T12:43:35.342Z,99813.44
2022-12-13T12:45:57.654Z,99811.69
2022-12-13T12:51:07.080Z,99802.8
2022-12-13T12:53:11.660Z,99807.04
2022-12-13T12:55:15.960Z,99809.05
2022-12-13T12:57:20.293Z,99809.38
2022-12-13T12:59:24.598Z,99810.17
2022-12-13T13:01:29.945Z,99814.1
2022-12-13T13:03:47.376Z,99809.3
2022-12-13T13:05:53.820Z,99815.75
2022-12-13T13:08:05.597Z,99813.52
2022-12-13T13:10:27.414Z,99807.2
2022-12-13T13:12:32.017Z,99814.17
2022-12-13T13:14:36.350Z,99814.38
2022-12-13T13:16:40.639Z,99813.04
2022-12-13T13:18:44.974Z,99813.77
2022-12-13T13:20:49.451Z,99815.69
2022-12-13T13:23:39.239Z,99818.67
2022-12-13T13:26:26.945Z,99812.31
2022-12-13T13:28:39.278Z,99810.8
2022-12-13T13:30:43.791Z,99815.22
2022-12-13T13:32:48.204Z,99814.47
2022-12-13T13:34:53.580Z,99821.53
2022-12-13T13:37:05.077Z,99821.86
2022-12-13T13:39:09.381Z,99822.9
2022-12-13T13:41:16.715Z,99823.15
2022-12-13T13:43:21.115Z,99828.13
2022-12-13T13:45:35.597Z,99828.61
2022-12-13T13:47:42.977Z,99839.64
2022-12-13T13:49:48.417Z,99845.45
2022-12-13T13:52:27.026Z,99841.56
2022-12-13T13:54:38.177Z,99843.96
2022-12-13T13:56:51.102Z,99845.9
2022-12-13T13:58:55.573Z,99848.52
2022-12-13T14:01:02.182Z,99845.13
2022-12-13T14:03:34.744Z,99849.92
2022-12-13T14:05:39.811Z,99849.3
2022-12-13T14:07:44.129Z,99848.9
2022-12-13T14:09:48.459Z,99844.79
2022-12-13T14:11:52.945Z,99845.45
2022-12-13T14:13:57.304Z,99851.16
2022-12-13T14:17:07.471Z,99849.88
2022-12-13T14:19:11.796Z,99849.07
2022-12-13T14:21:16.104Z,99850.64
2022-12-13T14:23:22.543Z,99849.09
2022-12-13T14:25:27.488Z,99854.02
2022-12-13T14:27:31.823Z,99858.28
2022-12-13T14:29:36.110Z,99859.08
2022-12-13T14:31:40.562Z,99859.2
2022-12-13T14:33:48.420Z,99858.54
2022-12-13T14:35:52.758Z,99856.58
2022-12-13T14:37:57.276Z,99855.34
2022-12-13T14:40:01.784Z,99860.95
2022-12-13T14:42:06.116Z,99860.36
2022-12-13T14:44:10.447Z,99863.78
2022-12-13T14:46:14.937Z,99862.27
2022-12-13T14:48:30.319Z,99863.14
2022-12-13T14:50:34.702Z,99868.34
2022-12-13T14:52:39.005Z,99864.5
2022-12-13T14:54:43.279Z,99877.16
2022-12-13T14:56:47.604Z,99878.53
2022-12-13T14:58:52.249Z,99860.62
2022-12-13T15:00:59.934Z,99855.23
2022-12-13T15:03:04.312Z,99855.23
2022-12-13T15:05:08.659Z,99857.39
2022-12-13T15:07:13.030Z,99856.9
2022-12-13T15:09:17.492Z,99864.61
2022-12-13T15:11:21.815Z,99852.33
2022-12-13T15:13:30.767Z,99850.48
2022-12-13T15:15:35.225Z,99851.31
2022-12-13T15:17:39.569Z,99853.91
2022-12-13T15:19:50.009Z,99858.23
2022-12-13T15:22:01.674Z,99858.22
2022-12-13T15:24:06.186Z,99860.05
2022-12-13T15:26:10.559Z,99856.26
2022-12-13T15:28:21.942Z,99860.38
2022-12-13T15:30:32.307Z,99857.88
2022-12-13T15:32:36.644Z,99864.8
2022-12-13T15:34:40.945Z,99860.36
2022-12-13T15:36:49.024Z,99861.77
2022-12-13T15:38:53.384Z,99866.89
2022-12-13T15:40:57.729Z,99864.48
2022-12-13T15:43:02.075Z,99865.53
2022-12-13T15:45:06.416Z,99864.76
2022-12-13T15:47:10.720Z,99861.25
2022-12-13T15:49:15.053Z,99865.76
2022-12-13T15:51:31.613Z,99858.69
2022-12-13T15:53:35.936Z,99861.38
2022-12-13T15:55:40.266Z,99861.87
2022-12-13T15:57:44.603Z,99864.88
2022-12-13T15:59:48.946Z,99867.07
2022-12-13T16:01:58.967Z,99868.89
2022-12-13T16:04:03.265Z,99865.69
2022-12-13T16:06:07.600Z,99864.38
2022-12-13T16:08:15.564Z,99870.81
2022-12-13T16:10:19.939Z,99863.7
2022-12-13T16:12:24.333Z,99861.02
2022-12-13T16:14:28.679Z,99862.27
2022-12-13T16:16:33.682Z,99861.5
2022-12-13T16:18:38.033Z,99860.98
2022-12-13T16:20:42.519Z,99862.13
2022-12-13T16:22:47.015Z,99867.66
2022-12-13T16:24:51.344Z,99871.11
2022-12-13T16:26:55.754Z,99876.06
2022-12-13T16:29:02.891Z,99872.88
2022-12-13T16:31:07.207Z,99875.09
2022-12-13T16:33:28.054Z,99879.73
2022-12-13T16:35:32.423Z,99872.02
2022-12-13T16:37:36.720Z,99874.28
2022-12-13T16:39:41.126Z,99873.84
2022-12-13T16:41:45.529Z,99877.88
2022-12-13T16:43:49.844Z,99873.22
2022-12-13T16:45:54.379Z,99874.42
2022-12-13T16:47:58.998Z,99865.75
2022-12-13T16:50:03.464Z,99863.65
2022-12-13T16:52:07.814Z,99868.43
2022-12-13T16:54:12.150Z,99871.05
2022-12-13T16:56:16.434Z,99874.05
2022-12-13T16:58:20.944Z,99872.74
2022-12-13T17:00:25.319Z,99875.79
2022-12-13T17:02:29.758Z,99873.33
2022-12-13T17:04:34.491Z,99877.48
2022-12-13T17:06:38.804Z,99878.8
2022-12-13T17:08:43.154Z,99877.82
2022-12-13T17:10:58.798Z,99883.06
2022-12-13T17:13:03.086Z,99885.52
2022-12-13T17:15:07.406Z,99884.08
2022-12-13T17:17:18.467Z,99879.25
2022-12-13T17:19:22.951Z,99874.69
2022-12-13T17:21:27.411Z,99879.96
2022-12-13T17:23:32.554Z,99879.38
2022-12-13T17:25:36.997Z,99884.15
2022-12-13T17:27:41.551Z,99883.38
2022-12-13T17:29:46.076Z,99878.88
2022-12-13T17:31:50.425Z,99882.36
2022-12-13T17:33:54.773Z,99885.56
2022-12-13T17:35:59.117Z,99880.5
2022-12-13T17:38:03.468Z,99889.8
2022-12-13T17:40:07.788Z,99881.92
2022-12-13T17:42:12.125Z,99885.3
2022-12-13T17:44:16.474Z,99885.28
2022-12-13T17:46:21.108Z,99889.66
2022-12-13T17:48:26.343Z,99886.33
2022-12-13T17:50:32.396Z,99891.03
2022-12-13T17:52:36.748Z,99895.01
2022-12-13T17:54:41.077Z,99896.67
2022-12-13T17:56:45.406Z,99891.83
2022-12-13T17:58:49.794Z,99889.19
2022-12-13T18:00:54.136Z,99890.48
2022-12-13T18:02:58.606Z,99893.05
2022-12-13T18:05:03.114Z,99894
2022-12-13T18:07:07.461Z,99892.48
2022-12-13T18:09:11.820Z,99899.66
2022-12-13T18:11:46.324Z,99896.8
2022-12-13T18:13:56.053Z,99900.68
2022-12-13T18:16:00.615Z,99897
2022-12-13T18:18:13.529Z,99896.89
2022-12-13T18:20:18.168Z,99899.44
2022-12-13T18:22:22.865Z,99902.36
2022-12-13T18:24:27.346Z,99899.94
2022-12-13T18:26:31.730Z,99903.73
2022-12-13T18:28:36.036Z,99904.8
2022-12-13T18:30:40.554Z,99902.39
2022-12-13T18:32:45.045Z,99903.3
2022-12-13T18:34:55.695Z,99903.73
2022-12-13T18:37:00.039Z,99903.8
2022-12-13T18:39:04.353Z,99909.64
2022-12-13T18:41:08.687Z,99908.65
2022-12-13T18:43:13.029Z,99904.45
2022-12-13T18:45:17.393Z,99901.58
2022-12-13T18:47:22.275Z,99901.7
2022-12-13T18:49:26.651Z,99899.2
2022-12-13T18:51:31.019Z,99903.52
2022-12-13T18:53:35.354Z,99900.86
2022-12-13T18:55:39.762Z,99900.69
2022-12-13T18:57:44.155Z,99900.84
2022-12-13T18:59:55.943Z,99902.84
2022-12-13T19:02:00.488Z,99898.55
2022-12-13T19:04:04.936Z,99895.87
2022-12-13T19:06:09.274Z,99895.41
2022-12-13T19:08:13.737Z,99897.67
2022-12-13T19:10:18.088Z,99904.48
2022-12-13T19:12:22.448Z,99898.78
2022-12-13T19:14:28.299Z,99904.07
2022-12-13T19:16:32.854Z,99904.67
2022-12-13T19:18:37.299Z,99904.41
2022-12-13T19:20:41.761Z,99908.66
2022-12-13T19:22:46.180Z,99905.11
2022-12-13T19:24:50.711Z,99902.41
2022-12-13T19:26:55.202Z,99900.45
2022-12-13T19:28:59.542Z,99904.85
2022-12-13T19:31:04.203Z,99904.75
2022-12-13T19:33:08.928Z,99904.03
2022-12-13T19:35:13.307Z,99902.13
2022-12-13T19:37:17.630Z,99900.59
2022-12-13T19:39:21.943Z,99901.98
2022-12-13T19:41:26.560Z,99902.76
2022-12-13T19:43:31.489Z,99896.53
2022-12-13T19:45:35.861Z,99891.86
2022-12-13T19:47:40.246Z,99886.69
2022-12-13T19:49:49.401Z,99884.59
2022-12-13T19:51:53.757Z,99885.78
2022-12-13T19:53:58.192Z,99888.86
2022-12-13T19:56:02.633Z,99889.9
2022-12-13T19:58:07.025Z,99891.66
2022-12-13T20:00:11.461Z,99895.63
2022-12-13T20:02:15.931Z,99892.88
2022-12-13T20:04:20.347Z,99895.24
2022-12-13T20:06:24.775Z,99889.23
2022-12-13T20:08:29.219Z,99894.72
2022-12-13T20:10:33.607Z,99895.92
2022-12-13T20:12:42.233Z,99892.55
2022-12-13T20:14:46.677Z,99896.41
2022-12-13T20:16:51.112Z,99900.95
2022-12-13T20:18:56.479Z,99902.88
2022-12-13T20:21:13.816Z,99908.59
2022-12-13T20:23:18.737Z,99907.57
2022-12-13T20:25:23.346Z,99907.53
2022-12-13T20:27:27.912Z,99911.27
2022-12-13T20:29:32.658Z,99913.72
2022-12-13T20:31:37.167Z,99919.64
2022-12-13T20:33:41.685Z,99919.53
2022-12-13T20:36:24.977Z,99923.8
2022-12-13T20:38:30.776Z,99921.93
2022-12-13T20:40:35.125Z,99918.91
2022-12-13T20:42:39.543Z,99916.32
2022-12-13T20:44:43.893Z,99913.17
2022-12-13T20:46:48.423Z,99909.98
2022-12-13T20:48:52.798Z,99914.28
2022-12-13T20:50:57.211Z,99914.44
2022-12-13T20:53:01.590Z,99914.54
2022-12-13T20:55:05.904Z,99913.38
2022-12-13T20:57:10.252Z,99911.5
2022-12-13T20:59:14.773Z,99914.7
2022-12-13T21:01:19.240Z,99911.66
2022-12-13T21:03:24.457Z,99908.18
2022-12-13T21:05:29.543Z,99904.24
2022-12-13T21:07:33.939Z,99903.9
2022-12-13T21:09:38.370Z,99902.06
2022-12-13T21:11:42.848Z,99903.97
2022-12-13T21:13:49.488Z,99903.11
2022-12-13T21:15:54.128Z,99901.45
2022-12-13T21:17:58.811Z,99900.93
2022-12-13T21:20:03.274Z,99904.05
2022-12-13T21:22:07.955Z,99903.45
2022-12-13T21:24:12.380Z,99909.62
2022-12-13T21:26:16.801Z,99907.81
2022-12-13T21:28:21.198Z,99902.67
2022-12-13T21:30:25.621Z,99894.8
2022-12-13T21:32:30.027Z,99898.97
2022-12-13T21:34:34.480Z,99898.33
2022-12-13T21:36:38.964Z,99899.27
2022-12-13T21:38:43.326Z,99899.31
2022-12-13T21:40:47.726Z,99896.31
2022-12-13T21:42:52.352Z,99894.37
2022-12-13T21:45:03.098Z,99893.99
2022-12-13T21:47:15.063Z,99898.28
2022-12-13T21:49:19.543Z,99891.34
2022-12-13T21:51:23.925Z,99886.66
2022-12-13T21:53:29.329Z,99886.78
2022-12-13T21:55:41.236Z,99884.52
2022-12-13T21:57:45.641Z,99885.8
2022-12-13T21:59:49.993Z,99885.97
2022-12-13T22:01:54.408Z,99884.42
2022-12-13T22:04:06.827Z,99885.17
2022-12-13T22:06:11.388Z,99885.16
2022-12-13T22:08:15.762Z,99884.38
2022-12-13T22:10:20.112Z,99880.33
2022-12-13T22:12:24.434Z,99889.8
2022-12-13T22:14:28.748Z,99888.88
2022-12-13T22:16:33.304Z,99888.09
2022-12-13T22:18:37.791Z,99884.16
2022-12-13T22:20:42.242Z,99881.74
2022-12-13T22:22:46.659Z,99882.59
2022-12-13T22:24:54.814Z,99879.41
2022-12-13T22:26:59.139Z,99883.22
2022-12-13T22:29:03.545Z,99879.86
2022-12-13T22:31:07.889Z,99880.13
2022-12-13T22:33:12.175Z,99877.03
2022-12-13T22:35:16.550Z,99876.97
2022-12-13T22:37:20.894Z,99875.02
2022-12-13T22:39:25.204Z,99869.52
2022-12-13T22:41:29.512Z,99867.33
2022-12-13T22:43:33.847Z,99863.23
2022-12-13T22:45:38.305Z,99864.75
2022-12-13T22:47:42.739Z,99861.88
2022-12-13T22:49:49.960Z,99865.53
2022-12-13T22:51:54.310Z,99859.14
2022-12-13T22:53:58.643Z,99857.08
2022-12-13T22:56:02.970Z,99854.34
2022-12-13T22:58:07.392Z,99849.48
2022-12-13T23:00:11.744Z,99850.99
2022-12-13T23:02:16.470Z,99844.73
2022-12-13T23:04:21.116Z,99848.21
2022-12-13T23:06:25.441Z,99845.52
2022-12-13T23:08:30.333Z,99840.45
2022-12-13T23:10:34.690Z,99836.97
2022-12-13T23:12:39.053Z,99835.49
2022-12-13T23:14:43.385Z,99834.7
2022-12-13T23:16:47.803Z,99832.16
2022-12-13T23:19:40.115Z,99829.52
2022-12-13T23:21:54.947Z,99823.83
2022-12-13T23:23:59.221Z,99821.7
2022-12-13T23:26:03.700Z,99817.48
2022-12-13T23:28:08.010Z,99816.45
2022-12-13T23:30:12.348Z,99816.02
2022-12-13T23:32:16.738Z,99816.67
2022-12-13T23:34:21.029Z,99811.94
2022-12-13T23:36:25.309Z,99805.14
2022-12-13T23:38:30.279Z,99802.9
2022-12-13T23:40:34.637Z,99800.22
2022-12-13T23:42:39.036Z,99793.13
2022-12-13T23:44:43.332Z,99791.7
2022-12-13T23:46:49.953Z,99789.89
2022-12-13T23:48:56.047Z,99796.92
2022-12-13T23:51:00.425Z,99797.54
2022-12-13T23:53:04.742Z,99798.33
2022-12-13T23:55:09.038Z,99794.63
2022-12-13T23:57:13.296Z,99786.02
2022-12-13T23:59:17.582Z,99784.33
